Time;durP1;ratioP1;P1;durP2;ratioP2;P2;SDS_P1;SDS_P2;PMS_P1;PMS_P2;Temp;Humidity;BMP_temperature;BMP_pressure;BME280_temperature;BME280_humidity;BME280_pressure;Samples;Min_cycle;Max_cycle;Signal;HPM_P1;HPM_P2
2021/06/29 00:00:29;;;;;;;8.60;5.07;;;19.50;99.90;;;;;;5053302;28;20025;-78
2021/06/29 00:03:01;;;;;;;5.80;4.90;;;19.50;99.90;;;;;;5052922;28;20029;-78
2021/06/29 00:05:28;;;;;;;5.80;4.72;;;19.50;99.90;;;;;;5053363;28;20029;-79
2021/06/29 00:07:54;;;;;;;6.97;4.70;;;19.40;99.90;;;;;;5053229;28;20025;-79
2021/06/29 00:10:20;;;;;;;6.78;4.55;;;19.40;99.90;;;;;;5053104;28;20571;-80
2021/06/29 00:12:46;;;;;;;5.05;4.55;;;19.40;99.90;;;;;;5052543;28;20028;-78
2021/06/29 00:15:12;;;;;;;5.43;4.70;;;19.40;99.90;;;;;;5053128;28;20033;-79
2021/06/29 00:17:38;;;;;;;6.82;4.40;;;19.30;99.90;;;;;;5052989;28;20028;-79
2021/06/29 00:20:04;;;;;;;5.10;4.40;;;19.20;99.90;;;;;;5053027;28;20525;-78
2021/06/29 00:22:30;;;;;;;6.00;4.28;;;19.20;99.90;;;;;;5053807;28;20095;-79
2021/06/29 00:24:55;;;;;;;4.90;4.45;;;19.20;99.90;;;;;;5054393;28;20107;-79
2021/06/29 00:27:21;;;;;;;6.50;4.80;;;19.10;99.90;;;;;;5053104;28;20017;-79
2021/06/29 00:29:46;;;;;;;6.63;4.50;;;19.10;99.90;;;;;;5052459;28;20029;-79
2021/06/29 00:32:12;;;;;;;5.40;4.90;;;19.10;99.90;;;;;;5052885;28;20033;-79
2021/06/29 00:34:38;;;;;;;6.03;5.40;;;19.00;99.90;;;;;;5052324;28;20025;-78
2021/06/29 00:37:04;;;;;;;5.60;5.10;;;19.00;99.90;;;;;;5052625;28;20033;-78
2021/06/29 00:39:29;;;;;;;8.93;4.82;;;19.00;99.90;;;;;;5052613;28;20029;-85
2021/06/29 00:41:55;;;;;;;5.43;4.88;;;18.90;99.90;;;;;;5052408;28;20079;-77
2021/06/29 00:44:24;;;;;;;6.22;5.63;;;18.80;99.90;;;;;;5053710;28;20017;-79
2021/06/29 00:46:53;;;;;;;9.73;5.78;;;18.80;99.90;;;;;;5052571;28;20353;-77
2021/06/29 00:49:20;;;;;;;5.70;5.20;;;18.70;99.90;;;;;;5052568;28;20017;-77
2021/06/29 00:51:45;;;;;;;6.25;5.50;;;18.80;99.90;;;;;;5051870;28;20376;-78
2021/06/29 00:54:14;;;;;;;5.95;5.28;;;18.80;99.90;;;;;;5052403;28;20017;-79
2021/06/29 00:56:42;;;;;;;7.50;5.38;;;18.70;99.90;;;;;;5052322;28;20056;-79
2021/06/29 00:59:08;;;;;;;10.02;5.47;;;18.70;99.90;;;;;;5052235;28;20421;-78
2021/06/29 01:01:33;;;;;;;7.00;5.18;;;18.70;99.90;;;;;;5052072;28;20063;-79
2021/06/29 01:03:59;;;;;;;5.55;5.05;;;18.70;99.90;;;;;;5053401;28;20146;-79
2021/06/29 01:06:27;;;;;;;6.32;5.35;;;18.70;99.90;;;;;;5053332;28;20025;-79
2021/06/29 01:08:53;;;;;;;8.05;5.68;;;18.60;99.90;;;;;;5051963;28;20055;-79
2021/06/29 01:11:19;;;;;;;7.05;5.25;;;18.60;99.90;;;;;;5053194;28;20037;-79
2021/06/29 01:13:46;;;;;;;6.75;6.15;;;18.60;99.90;;;;;;5051618;28;20040;-79
2021/06/29 01:16:12;;;;;;;6.43;5.82;;;18.50;99.90;;;;;;5051966;28;20021;-79
2021/06/29 01:18:41;;;;;;;8.10;5.97;;;18.50;99.90;;;;;;5051588;28;20028;-80
2021/06/29 01:21:19;;;;;;;6.72;5.95;;;18.50;99.90;;;;;;5053077;28;20476;-79
2021/06/29 01:23:50;;;;;;;8.38;5.72;;;18.50;99.90;;;;;;5052015;28;20098;-77
2021/06/29 01:28:53;;;;;;;7.60;6.00;;;18.40;99.90;;;;;;5053134;28;20083;-78
2021/06/29 01:31:20;;;;;;;6.97;5.90;;;18.40;99.90;;;;;;5051833;28;20041;-79
2021/06/29 01:33:46;;;;;;;6.00;5.40;;;18.30;99.90;;;;;;5052956;28;20079;-79
2021/06/29 01:36:20;;;;;;;9.95;5.57;;;18.40;99.90;;;;;;5051656;28;20032;-80
2021/06/29 01:38:47;;;;;;;7.28;5.88;;;18.40;99.90;;;;;;5051488;28;20432;-78
2021/06/29 01:41:19;;;;;;;6.97;6.10;;;18.40;99.90;;;;;;5051919;28;20059;-79
2021/06/29 01:46:46;;;;;;;8.18;5.80;;;18.40;99.90;;;;;;5051218;28;20033;-78
2021/06/29 01:49:11;;;;;;;9.02;6.00;;;18.40;99.90;;;;;;5051568;28;20043;-80
2021/06/29 01:51:37;;;;;;;8.02;6.35;;;18.30;99.90;;;;;;5051213;28;20388;-79
2021/06/29 01:54:03;;;;;;;6.88;6.28;;;18.30;99.90;;;;;;5051443;28;20021;-79
2021/06/29 01:56:35;;;;;;;11.82;6.13;;;18.20;99.90;;;;;;5051046;28;20071;-79
2021/06/29 01:59:08;;;;;;;9.43;5.68;;;18.20;99.90;;;;;;5053108;28;20017;-79
2021/06/29 02:01:34;;;;;;;6.63;5.70;;;18.20;99.90;;;;;;5052534;28;20028;-78
2021/06/29 02:04:00;;;;;;;7.97;6.22;;;18.10;99.90;;;;;;5051227;28;20025;-78
2021/06/29 02:06:25;;;;;;;7.30;6.60;;;18.10;99.90;;;;;;5051406;28;20032;-77
2021/06/29 02:08:52;;;;;;;7.25;5.68;;;18.10;99.90;;;;;;5051176;28;20066;-79
2021/06/29 02:11:17;;;;;;;6.68;5.97;;;18.10;99.90;;;;;;5051351;28;20065;-80
2021/06/29 02:13:43;;;;;;;7.50;5.97;;;18.20;99.90;;;;;;5052525;28;20052;-78
2021/06/29 02:16:08;;;;;;;9.10;6.43;;;18.10;99.90;;;;;;5051450;28;20515;-80
2021/06/29 02:18:34;;;;;;;9.40;6.55;;;18.00;99.90;;;;;;5051203;28;20345;-79
2021/06/29 02:21:00;;;;;;;8.13;6.25;;;18.00;99.90;;;;;;5051189;28;20147;-79
2021/06/29 02:23:25;;;;;;;8.50;6.40;;;18.00;99.90;;;;;;5052589;28;20376;-79
2021/06/29 02:25:51;;;;;;;11.48;6.07;;;18.00;99.90;;;;;;5051441;28;20040;-80
2021/06/29 02:28:18;;;;;;;10.43;6.43;;;18.00;99.90;;;;;;5051518;28;20116;-79
2021/06/29 02:30:44;;;;;;;7.03;6.32;;;18.00;99.90;;;;;;5052410;28;20025;-90
2021/06/29 02:33:10;;;;;;;8.75;6.18;;;17.90;99.90;;;;;;5051197;28;20028;-87
2021/06/29 02:35:36;;;;;;;8.40;6.35;;;17.90;99.90;;;;;;5051313;28;20041;-80
2021/06/29 02:38:06;;;;;;;10.35;5.65;;;17.90;99.90;;;;;;5051265;28;20025;-80
2021/06/29 02:40:32;;;;;;;7.70;6.45;;;17.90;99.90;;;;;;5050909;28;20029;-87
2021/06/29 02:42:59;;;;;;;5.85;5.32;;;18.00;99.90;;;;;;5052382;28;20029;-79
2021/06/29 02:45:25;;;;;;;8.68;6.03;;;18.00;99.90;;;;;;5051164;28;20124;-79
2021/06/29 02:47:52;;;;;;;5.93;5.43;;;18.00;99.90;;;;;;5051018;28;20464;-79
2021/06/29 02:50:18;;;;;;;11.05;5.13;;;17.90;99.90;;;;;;5050945;28;20036;-79
2021/06/29 02:52:44;;;;;;;6.13;5.53;;;17.90;99.90;;;;;;5050952;28;20025;-80
2021/06/29 02:55:11;;;;;;;8.57;5.25;;;17.90;99.90;;;;;;5051425;28;20025;-87
2021/06/29 02:57:37;;;;;;;7.03;5.35;;;17.90;99.90;;;;;;5051270;28;20019;-79
2021/06/29 03:00:15;;;;;;;6.53;5.70;;;17.80;99.90;;;;;;5054633;28;20021;-80
2021/06/29 03:02:41;;;;;;;8.60;4.80;;;17.80;99.90;;;;;;5039054;28;20511;-79
2021/06/29 03:05:08;;;;;;;7.13;5.20;;;17.70;99.90;;;;;;5054482;28;20377;-78
2021/06/29 03:07:33;;;;;;;10.32;5.38;;;17.70;99.90;;;;;;5055913;28;20040;-79
2021/06/29 03:09:59;;;;;;;7.95;5.90;;;17.70;99.90;;;;;;5054251;28;20468;-81
2021/06/29 03:12:25;;;;;;;9.07;6.15;;;17.60;99.90;;;;;;5054276;28;20021;-78
2021/06/29 03:14:56;;;;;;;6.82;5.13;;;17.60;99.90;;;;;;5054329;28;20048;-79
2021/06/29 03:17:22;;;;;;;7.82;5.72;;;17.60;99.90;;;;;;5054380;28;20025;-79
2021/06/29 03:19:47;;;;;;;8.50;5.65;;;17.60;99.90;;;;;;5054292;28;20032;-80
2021/06/29 03:22:13;;;;;;;8.80;5.55;;;17.50;99.90;;;;;;5054253;28;20030;-80
2021/06/29 03:24:38;;;;;;;7.57;5.15;;;17.50;99.90;;;;;;5054256;28;20041;-80
2021/06/29 03:27:05;;;;;;;6.18;5.68;;;17.50;99.90;;;;;;5054388;28;20032;-80
2021/06/29 03:29:31;;;;;;;6.57;6.00;;;17.60;99.90;;;;;;5055317;28;20032;-80
2021/06/29 03:31:56;;;;;;;7.22;6.18;;;17.60;99.90;;;;;;5054237;28;20033;-81
2021/06/29 03:34:22;;;;;;;44.78;32.13;;;17.60;99.90;;;;;;5055224;28;20021;-80
2021/06/29 03:36:48;;;;;;;21.48;16.88;;;17.50;99.90;;;;;;5054070;28;20116;-80
2021/06/29 03:39:14;;;;;;;10.25;6.25;;;17.60;99.90;;;;;;5054158;28;20101;-87
2021/06/29 03:41:40;;;;;;;9.70;7.85;;;17.60;99.90;;;;;;5055151;28;20440;-80
2021/06/29 03:44:05;;;;;;;21.85;16.77;;;17.60;99.90;;;;;;5053835;28;20040;-80
2021/06/29 03:46:32;;;;;;;21.75;14.50;;;17.70;99.90;;;;;;5053479;28;20056;-79
2021/06/29 03:48:58;;;;;;;8.35;7.55;;;17.60;99.90;;;;;;5054091;28;20464;-87
2021/06/29 03:51:24;;;;;;;10.07;6.35;;;17.60;99.90;;;;;;5053600;28;20048;-80
2021/06/29 03:53:49;;;;;;;6.80;5.90;;;17.60;99.90;;;;;;5053720;28;20110;-80
2021/06/29 03:56:24;;;;;;;7.85;6.55;;;17.60;99.90;;;;;;5053968;28;20111;-81
2021/06/29 03:58:56;;;;;;;11.40;7.90;;;17.60;99.90;;;;;;5055076;28;20045;-79
2021/06/29 04:01:23;;;;;;;9.93;6.40;;;17.60;99.90;;;;;;5053728;28;20091;-79
2021/06/29 04:03:54;;;;;;;8.40;7.00;;;17.70;99.90;;;;;;5053500;28;20112;-79
2021/06/29 04:06:20;;;;;;;8.18;7.03;;;17.70;99.90;;;;;;5053518;28;20033;-81
2021/06/29 04:08:45;;;;;;;8.48;7.55;;;17.80;99.90;;;;;;5053096;28;20021;-80
2021/06/29 04:11:11;;;;;;;9.68;7.75;;;17.80;99.90;;;;;;5052989;28;20538;-79
2021/06/29 04:13:36;;;;;;;8.18;7.05;;;17.80;99.90;;;;;;5053179;28;20040;-87
2021/06/29 04:16:02;;;;;;;11.98;8.60;;;17.90;99.90;;;;;;5053124;28;20028;-79
2021/06/29 04:18:28;;;;;;;5.95;5.35;;;18.00;99.90;;;;;;5053815;28;20472;-78
2021/06/29 04:20:53;;;;;;;8.63;5.20;;;19.70;99.90;;;;;;5055987;28;20118;-77
2021/06/29 04:23:19;;;;;;;9.32;4.47;;;20.60;99.90;;;;;;5058070;28;20021;-81
2021/06/29 04:25:45;;;;;;;7.70;5.20;;;21.40;99.90;;;;;;5057959;28;20033;-79
2021/06/29 04:28:10;;;;;;;7.35;4.68;;;22.30;99.90;;;;;;5052832;28;20094;-79
2021/06/29 04:30:36;;;;;;;6.90;4.53;;;22.20;99.90;;;;;;5052633;28;20434;-79
2021/06/29 04:33:01;;;;;;;9.43;5.13;;;22.20;99.90;;;;;;5052714;28;20025;-78
2021/06/29 04:35:27;;;;;;;12.15;5.20;;;22.00;99.90;;;;;;5053689;28;20056;-80
2021/06/29 04:37:52;;;;;;;6.97;5.35;;;21.60;99.90;;;;;;5052845;28;20471;-78
2021/06/29 04:40:18;;;;;;;7.65;5.10;;;21.10;99.90;;;;;;5052592;28;20046;-79
2021/06/29 04:42:46;;;;;;;12.18;6.07;;;21.30;99.90;;;;;;5054044;28;20115;-80
2021/06/29 04:45:12;;;;;;;8.30;5.60;;;21.20;99.90;;;;;;5052685;28;20029;-79
2021/06/29 04:47:46;;;;;;;9.02;5.10;;;21.00;99.90;;;;;;5052325;28;20028;-79
2021/06/29 04:50:13;;;;;;;5.80;5.10;;;21.00;99.90;;;;;;5052249;28;20091;-79
2021/06/29 04:52:38;;;;;;;8.00;5.00;;;20.80;99.90;;;;;;5052620;28;20120;-78
2021/06/29 04:55:04;;;;;;;6.78;5.28;;;20.70;99.90;;;;;;5053799;28;20120;-79
2021/06/29 04:57:30;;;;;;;5.55;4.65;;;21.10;99.90;;;;;;5052110;28;20041;-79
2021/06/29 04:59:56;;;;;;;10.02;4.50;;;21.60;99.90;;;;;;5053212;28;20036;-79
2021/06/29 05:02:21;;;;;;;10.23;5.25;;;21.70;99.90;;;;;;5052282;28;20476;-78
2021/06/29 05:04:47;;;;;;;6.20;5.07;;;21.70;99.90;;;;;;5052366;28;20187;-78
2021/06/29 05:07:13;;;;;;;8.82;5.00;;;21.40;99.90;;;;;;5053051;28;20037;-77
2021/06/29 05:09:38;;;;;;;7.43;4.85;;;21.50;99.90;;;;;;5053235;28;20114;-77
2021/06/29 05:12:04;;;;;;;6.00;5.13;;;21.60;99.90;;;;;;5052826;28;20028;-78
2021/06/29 05:14:30;;;;;;;6.85;4.97;;;21.80;99.90;;;;;;5053009;28;20045;-77
2021/06/29 05:16:56;;;;;;;9.48;5.43;;;21.80;99.90;;;;;;5053135;28;20075;-77
2021/06/29 05:19:21;;;;;;;11.10;5.30;;;21.80;99.90;;;;;;5053134;28;20132;-78
2021/06/29 05:21:47;;;;;;;6.18;5.60;;;22.20;99.90;;;;;;5052260;28;20447;-80
2021/06/29 05:24:13;;;;;;;7.88;4.60;;;22.80;99.90;;;;;;5052996;28;20033;-78
2021/06/29 05:26:38;;;;;;;6.25;4.70;;;22.50;99.90;;;;;;5052985;28;20021;-78
2021/06/29 05:29:05;;;;;;;7.43;5.13;;;22.60;99.90;;;;;;5053268;28;20490;-80
2021/06/29 05:31:31;;;;;;;7.03;5.88;;;22.70;99.90;;;;;;5052664;28;20476;-81
2021/06/29 05:33:57;;;;;;;8.25;6.13;;;23.10;99.90;;;;;;5051711;28;20027;-76
2021/06/29 05:36:22;;;;;;;9.65;4.45;;;22.90;99.90;;;;;;5051452;28;20083;-76
2021/06/29 05:38:48;;;;;;;7.90;5.03;;;22.80;99.90;;;;;;5051498;28;20028;-76
2021/06/29 05:41:14;;;;;;;7.30;4.10;;;22.50;99.90;;;;;;5051389;28;20056;-76
2021/06/29 05:43:39;;;;;;;5.63;4.65;;;22.50;99.90;;;;;;5051252;28;20051;-77
2021/06/29 05:46:05;;;;;;;4.60;4.18;;;22.60;99.90;;;;;;5051151;28;20368;-76
2021/06/29 05:48:33;;;;;;;7.43;4.30;;;22.70;99.90;;;;;;5051378;28;20087;-76
2021/06/29 05:50:59;;;;;;;7.53;4.55;;;22.80;99.90;;;;;;5050987;28;20040;-76
2021/06/29 05:53:25;;;;;;;6.97;4.30;;;22.90;99.90;;;;;;5052601;28;20028;-80
2021/06/29 05:55:51;;;;;;;6.28;4.40;;;23.00;99.90;;;;;;5052490;28;20407;-82
2021/06/29 05:58:16;;;;;;;7.65;4.70;;;23.10;99.90;;;;;;5051405;28;20021;-76
2021/06/29 06:00:43;;;;;;;12.20;4.50;;;23.30;99.90;;;;;;5051076;28;20025;-76
2021/06/29 06:03:08;;;;;;;5.53;4.40;;;23.40;99.90;;;;;;5051085;28;20419;-77
2021/06/29 06:05:34;;;;;;;9.00;4.32;;;23.60;99.90;;;;;;5051274;28;20029;-76
2021/06/29 06:08:00;;;;;;;6.22;4.15;;;23.90;99.90;;;;;;5051231;28;20024;-75
2021/06/29 06:10:25;;;;;;;5.68;4.30;;;24.00;99.90;;;;;;5051106;28;20083;-76
2021/06/29 06:12:51;;;;;;;5.00;4.18;;;24.20;97.90;;;;;;5050772;28;20391;-76
2021/06/29 06:15:17;;;;;;;4.75;3.95;;;24.30;98.20;;;;;;5051182;28;20128;-76
2021/06/29 06:17:43;;;;;;;4.47;3.95;;;24.40;98.60;;;;;;5051129;28;20112;-76
2021/06/29 06:20:10;;;;;;;6.40;4.75;;;24.50;98.80;;;;;;5051232;28;20025;-76
2021/06/29 06:22:36;;;;;;;6.18;4.40;;;24.70;98.70;;;;;;5050873;28;20419;-84
2021/06/29 06:25:02;;;;;;;8.18;4.60;;;24.70;99.40;;;;;;5050909;28;20029;-76
2021/06/29 06:27:28;;;;;;;5.05;4.65;;;24.90;99.50;;;;;;5051266;28;20426;-76
2021/06/29 06:29:53;;;;;;;5.55;4.63;;;25.00;99.50;;;;;;5050782;28;20025;-77
2021/06/29 06:32:19;;;;;;;6.38;4.80;;;25.10;99.50;;;;;;5052030;28;20028;-77
2021/06/29 06:34:44;;;;;;;8.13;5.10;;;25.20;99.80;;;;;;5054899;28;20021;-77
2021/06/29 06:37:10;;;;;;;9.38;5.80;;;25.00;99.70;;;;;;5054828;28;20025;-76
2021/06/29 06:39:36;;;;;;;6.32;5.50;;;24.80;99.90;;;;;;5054827;28;20025;-77
2021/06/29 06:42:02;;;;;;;9.60;5.40;;;24.90;99.90;;;;;;5054404;28;20111;-78
2021/06/29 06:44:27;;;;;;;7.30;4.30;;;25.00;99.90;;;;;;5054459;28;20030;-79
2021/06/29 06:46:53;;;;;;;7.28;4.20;;;25.40;98.10;;;;;;5055587;28;20380;-80
2021/06/29 06:49:19;;;;;;;6.40;4.00;;;25.40;97.00;;;;;;5056047;28;20025;-78
2021/06/29 06:51:44;;;;;;;7.10;4.60;;;25.60;96.40;;;;;;5055352;28;20661;-77
2021/06/29 06:54:10;;;;;;;11.63;4.35;;;25.80;95.60;;;;;;5055552;28;20025;-76
2021/06/29 06:56:36;;;;;;;5.35;4.50;;;26.00;95.00;;;;;;5055301;28;20033;-77
2021/06/29 06:59:01;;;;;;;5.93;4.28;;;26.10;95.00;;;;;;5056139;28;20350;-77
2021/06/29 07:01:27;;;;;;;5.63;4.35;;;26.10;95.30;;;;;;5054715;28;20075;-76
2021/06/29 07:03:52;;;;;;;10.55;4.53;;;26.10;94.60;;;;;;5054682;28;20056;-76
2021/06/29 07:06:18;;;;;;;5.03;3.85;;;26.00;96.00;;;;;;5054707;28;20107;-77
2021/06/29 07:08:44;;;;;;;5.10;3.92;;;26.20;94.90;;;;;;5054747;28;20146;-76
2021/06/29 07:11:10;;;;;;;6.22;4.15;;;26.10;94.20;;;;;;5054638;28;20048;-77
2021/06/29 07:13:36;;;;;;;4.82;4.00;;;26.20;94.30;;;;;;5054471;28;20556;-77
2021/06/29 07:16:03;;;;;;;7.85;4.25;;;26.40;94.40;;;;;;5054581;28;20024;-76
2021/06/29 07:18:29;;;;;;;6.13;4.13;;;26.50;94.50;;;;;;5054394;28;20119;-84
2021/06/29 07:20:55;;;;;;;8.27;3.83;;;26.70;93.90;;;;;;5055504;28;20452;-75
2021/06/29 07:23:20;;;;;;;5.95;4.50;;;26.90;93.80;;;;;;5053929;28;20036;-77
2021/06/29 07:25:47;;;;;;;9.00;4.00;;;27.10;93.50;;;;;;5053916;28;20021;-78
2021/06/29 07:28:13;;;;;;;5.78;3.67;;;27.30;92.40;;;;;;5054083;28;20393;-77
2021/06/29 07:30:40;;;;;;;5.90;4.25;;;27.50;91.30;;;;;;5053941;28;20043;-75
2021/06/29 07:33:06;;;;;;;8.90;4.15;;;27.50;90.60;;;;;;5053819;28;20025;-76
2021/06/29 07:35:32;;;;;;;6.32;4.30;;;27.70;91.60;;;;;;5054212;28;20128;-83
2021/06/29 07:38:01;;;;;;;4.53;3.28;;;27.60;89.80;;;;;;5054014;28;20071;-77
2021/06/29 07:40:30;;;;;;;6.32;3.40;;;27.80;88.90;;;;;;5053666;28;20025;-76
2021/06/29 07:42:57;;;;;;;4.32;3.80;;;27.90;87.40;;;;;;5053936;28;20023;-76
2021/06/29 07:45:26;;;;;;;6.30;3.83;;;28.10;85.80;;;;;;5054249;28;20433;-76
2021/06/29 07:47:52;;;;;;;5.97;3.85;;;28.00;85.60;;;;;;5053731;28;20032;-76
2021/06/29 07:50:18;;;;;;;4.28;3.88;;;28.10;87.90;;;;;;5053721;28;20025;-77
2021/06/29 07:52:43;;;;;;;4.35;3.40;;;28.30;87.90;;;;;;5055051;28;20032;-83
2021/06/29 07:55:09;;;;;;;5.35;3.88;;;28.70;85.80;;;;;;5053916;28;20021;-77
2021/06/29 07:57:35;;;;;;;6.30;3.70;;;28.70;83.20;;;;;;5053698;28;20021;-76
2021/06/29 08:00:01;;;;;;;8.10;3.58;;;28.60;85.20;;;;;;5053815;28;20345;-75
2021/06/29 08:02:26;;;;;;;5.95;3.58;;;28.80;84.80;;;;;;5053245;28;20116;-76
2021/06/29 08:04:52;;;;;;;4.10;3.63;;;28.90;83.60;;;;;;5052903;28;20483;-78
2021/06/29 08:07:17;;;;;;;5.93;3.60;;;28.80;84.50;;;;;;5053712;28;20029;-77
2021/06/29 08:09:44;;;;;;;4.57;3.80;;;29.00;83.30;;;;;;5052909;28;20021;-75
2021/06/29 08:12:10;;;;;;;5.22;3.75;;;29.00;82.70;;;;;;5055002;28;20029;-77
2021/06/29 08:14:36;;;;;;;5.28;4.00;;;29.30;84.10;;;;;;5054666;28;20506;-77
2021/06/29 08:17:04;;;;;;;5.55;3.60;;;29.30;82.10;;;;;;5053744;28;20027;-84
2021/06/29 08:19:29;;;;;;;6.22;3.75;;;29.20;83.30;;;;;;5053647;28;20025;-77
2021/06/29 08:21:56;;;;;;;6.47;3.55;;;29.10;86.40;;;;;;5053690;28;20036;-77
2021/06/29 08:24:23;;;;;;;5.90;3.80;;;29.10;83.50;;;;;;5053513;28;20116;-81
2021/06/29 08:26:48;;;;;;;4.97;3.70;;;29.10;84.30;;;;;;5053832;28;20367;-76
2021/06/29 08:29:14;;;;;;;4.00;3.60;;;29.20;84.90;;;;;;5062077;28;20111;-82
2021/06/29 08:31:39;;;;;;;6.47;3.55;;;29.30;83.10;;;;;;5074315;28;20075;-84
2021/06/29 08:34:07;;;;;;;9.13;3.92;;;29.40;82.40;;;;;;5077386;28;20391;-88
2021/06/29 08:36:41;;;;;;;4.90;3.97;;;29.70;82.70;;;;;;5074612;28;20123;-79
2021/06/29 08:39:07;;;;;;;4.30;3.53;;;29.90;81.00;;;;;;5074002;28;20447;-86
2021/06/29 08:41:33;;;;;;;5.65;3.30;;;30.10;80.20;;;;;;5074794;28;20031;-81
2021/06/29 08:43:59;;;;;;;6.38;3.80;;;30.20;78.40;;;;;;5075128;28;20059;-84
2021/06/29 08:46:24;;;;;;;4.57;3.60;;;30.30;78.30;;;;;;5074202;28;20032;-83
2021/06/29 08:48:50;;;;;;;4.63;3.47;;;30.40;77.80;;;;;;5074508;28;20021;-85
2021/06/29 08:51:16;;;;;;;4.10;3.67;;;30.60;79.30;;;;;;5073909;28;20032;-82
2021/06/29 08:53:42;;;;;;;4.85;3.53;;;30.70;77.70;;;;;;5073848;28;20035;-80
2021/06/29 08:56:14;;;;;;;5.93;3.53;;;30.70;78.40;;;;;;5073806;28;20095;-82
2021/06/29 08:58:40;;;;;;;5.15;3.22;;;30.70;76.90;;;;;;5073708;28;20029;-85
2021/06/29 09:01:06;;;;;;;5.78;3.50;;;30.60;76.50;;;;;;5073537;28;20028;-82
2021/06/29 09:03:31;;;;;;;4.80;3.20;;;30.60;78.10;;;;;;5074072;28;20062;-78
2021/06/29 09:05:57;;;;;;;6.90;3.83;;;30.70;75.80;;;;;;5072738;28;20549;-78
2021/06/29 09:08:24;;;;;;;6.10;3.30;;;30.70;76.30;;;;;;5072712;28;20025;-76
2021/06/29 09:11:19;;;;;;;3.80;3.15;;;30.60;76.70;;;;;;5072843;28;20064;-78
2021/06/29 09:14:01;;;;;;;4.05;3.28;;;30.70;73.10;;;;;;5073003;28;20051;-81
2021/06/29 09:16:27;;;;;;;6.57;2.97;;;30.90;73.00;;;;;;5073202;28;20039;-82
2021/06/29 09:18:53;;;;;;;3.63;3.10;;;31.00;74.50;;;;;;5074426;28;20382;-83
2021/06/29 09:21:18;;;;;;;4.90;3.22;;;31.20;71.20;;;;;;5073223;28;20119;-86
2021/06/29 09:23:50;;;;;;;6.07;3.00;;;31.30;71.50;;;;;;5073016;28;20119;-82
2021/06/29 09:26:18;;;;;;;4.47;2.60;;;31.40;69.40;;;;;;5073103;28;20085;-80
2021/06/29 09:28:53;;;;;;;5.78;2.78;;;31.70;70.50;;;;;;5072681;28;20024;-79
2021/06/29 09:31:21;;;;;;;3.88;2.83;;;31.70;67.10;;;;;;5074098;28;20509;-81
2021/06/29 09:33:52;;;;;;;6.35;2.72;;;31.80;66.80;;;;;;5072940;28;20025;-81
2021/06/29 09:36:21;;;;;;;4.68;2.60;;;32.00;65.00;;;;;;5074091;28;20066;-82
2021/06/29 09:38:50;;;;;;;6.07;2.60;;;32.10;64.60;;;;;;5074346;28;20020;-82
2021/06/29 09:41:22;;;;;;;5.72;2.65;;;32.10;64.10;;;;;;5073039;28;20024;-83
2021/06/29 09:43:54;;;;;;;4.53;2.72;;;31.90;66.40;;;;;;5073304;28;20028;-81
2021/06/29 09:46:22;;;;;;;7.18;2.67;;;32.00;64.20;;;;;;5072419;28;20111;-78
2021/06/29 09:48:56;;;;;;;3.72;2.55;;;32.10;66.50;;;;;;5072852;28;20119;-83
2021/06/29 09:51:27;;;;;;;4.25;2.40;;;32.10;64.10;;;;;;5072566;28;20039;-84
2021/06/29 09:53:58;;;;;;;3.95;2.42;;;32.00;63.60;;;;;;5072910;28;20033;-82
2021/06/29 09:56:32;;;;;;;4.03;2.75;;;32.10;63.40;;;;;;5072704;28;20028;-82
2021/06/29 09:58:59;;;;;;;3.78;2.40;;;32.10;61.70;;;;;;5068282;28;20593;-81
2021/06/29 10:01:28;;;;;;;3.13;2.17;;;32.00;59.60;;;;;;5072806;28;20040;-82
2021/06/29 10:03:56;;;;;;;3.97;2.67;;;32.10;59.10;;;;;;5072880;28;20052;-80
2021/06/29 10:06:23;;;;;;;4.60;2.50;;;32.20;60.10;;;;;;5073951;28;20028;-81
2021/06/29 10:08:52;;;;;;;2.38;2.00;;;32.40;57.60;;;;;;5077630;28;20035;-82
2021/06/29 10:11:21;;;;;;;2.55;2.00;;;32.40;58.80;;;;;;5076290;28;20036;-82
2021/06/29 10:13:55;;;;;;;3.28;1.90;;;32.30;58.20;;;;;;5076460;28;20040;-80
2021/06/29 10:16:24;;;;;;;3.45;1.95;;;32.20;57.80;;;;;;5076524;28;20029;-81
2021/06/29 10:18:54;;;;;;;4.82;2.60;;;32.40;58.10;;;;;;5076817;28;20115;-82
2021/06/29 10:21:24;;;;;;;6.22;2.20;;;32.60;56.50;;;;;;5076514;28;20029;-81
2021/06/29 10:23:52;;;;;;;4.68;1.90;;;32.70;56.00;;;;;;5076325;28;20490;-81
2021/06/29 10:26:19;;;;;;;3.47;2.00;;;32.80;55.10;;;;;;5076492;28;20020;-82
2021/06/29 10:28:47;;;;;;;2.60;2.20;;;32.80;56.80;;;;;;5076419;28;20058;-82
2021/06/29 10:31:24;;;;;;;4.20;2.33;;;32.80;56.30;;;;;;5076225;28;20388;-82
2021/06/29 10:33:51;;;;;;;4.72;2.28;;;32.80;57.70;;;;;;5076277;28;20028;-84
2021/06/29 10:36:18;;;;;;;3.03;2.00;;;32.80;57.70;;;;;;5076599;28;20044;-83
2021/06/29 10:38:46;;;;;;;6.30;2.30;;;32.70;57.40;;;;;;5076212;28;20044;-83
2021/06/29 10:41:12;;;;;;;5.82;2.13;;;32.80;58.20;;;;;;5076191;28;20036;-83
2021/06/29 10:43:38;;;;;;;6.78;2.25;;;32.70;55.40;;;;;;5076164;28;20024;-82
2021/06/29 10:46:04;;;;;;;4.40;2.30;;;32.80;59.00;;;;;;5075911;28;20056;-83
2021/06/29 10:48:30;;;;;;;6.55;2.30;;;32.90;57.60;;;;;;5076087;28;20025;-82
2021/06/29 10:50:59;;;;;;;3.78;2.20;;;32.90;58.10;;;;;;5075908;28;20467;-80
2021/06/29 10:53:44;;;;;;;3.28;2.13;;;32.90;58.30;;;;;;5075840;28;20024;-86
2021/06/29 10:56:20;;;;;;;3.17;1.80;;;33.10;56.60;;;;;;5075798;28;20031;-79
2021/06/29 10:58:48;;;;;;;4.38;2.30;;;32.70;55.70;;;;;;5075675;28;20032;-78
2021/06/29 11:01:32;;;;;;;3.75;1.90;;;32.80;55.30;;;;;;5075427;28;20467;-79
2021/06/29 11:04:03;;;;;;;2.77;1.90;;;32.60;54.00;;;;;;5075553;28;20039;-84
2021/06/29 11:06:45;;;;;;;2.20;2.00;;;32.70;56.60;;;;;;5075623;28;20113;-78
2021/06/29 11:09:18;;;;;;;2.05;1.90;;;32.80;56.80;;;;;;5075418;28;20024;-79
2021/06/29 11:12:20;;;;;;;8.30;2.00;;;33.00;55.20;;;;;;5075392;28;20131;-77
2021/06/29 11:14:47;;;;;;;3.92;1.95;;;33.20;55.00;;;;;;5074911;28;20055;-78
2021/06/29 11:17:14;;;;;;;6.43;1.88;;;33.40;54.50;;;;;;5075379;28;20067;-78
2021/06/29 11:20:05;;;;;;;3.88;1.70;;;33.50;52.20;;;;;;5074109;28;20031;-78
2021/06/29 11:22:57;;;;;;;4.78;1.55;;;33.60;51.30;;;;;;5075208;28;20028;-78
2021/06/29 11:25:44;;;;;;;5.25;1.23;;;33.80;50.30;;;;;;5075127;28;20040;-78
2021/06/29 11:28:24;;;;;;;3.28;2.00;;;33.70;48.10;;;;;;5076063;28;20067;-78
2021/06/29 11:31:40;;;;;;;4.63;1.95;;;33.70;54.50;;;;;;5076128;28;20039;-78
2021/06/29 11:34:08;;;;;;;2.97;1.50;;;33.60;53.40;;;;;;5074776;28;20020;-77
2021/06/29 11:36:37;;;;;;;2.88;1.98;;;33.60;52.50;;;;;;5074876;28;20052;-78
2021/06/29 11:39:18;;;;;;;1.67;1.58;;;33.70;53.30;;;;;;5074846;28;20028;-78
2021/06/29 11:41:58;;;;;;;2.78;1.55;;;33.70;53.50;;;;;;5074657;28;20059;-78
2021/06/29 11:44:24;;;;;;;2.90;1.60;;;33.60;53.70;;;;;;5074794;28;20472;-78
2021/06/29 11:47:06;;;;;;;3.67;1.65;;;33.50;52.80;;;;;;5074739;28;20033;-78
2021/06/29 11:49:38;;;;;;;4.95;1.60;;;33.50;51.40;;;;;;5074560;28;20017;-78
2021/06/29 11:52:18;;;;;;;3.28;1.50;;;33.50;52.00;;;;;;5074888;28;20037;-78
2021/06/29 11:54:57;;;;;;;4.32;1.63;;;33.50;53.40;;;;;;5076164;28;20028;-78
2021/06/29 11:57:38;;;;;;;4.25;1.65;;;33.50;51.70;;;;;;5073933;28;20111;-82
2021/06/29 12:00:17;;;;;;;4.53;1.60;;;33.40;53.40;;;;;;5072970;28;20020;-75
2021/06/29 12:02:42;;;;;;;4.43;1.60;;;33.40;50.10;;;;;;5073698;28;20013;-79
2021/06/29 12:05:16;;;;;;;3.15;1.55;;;33.60;51.00;;;;;;5073397;28;20035;-77
2021/06/29 12:07:59;;;;;;;4.35;1.48;;;33.50;52.00;;;;;;5073275;28;20059;-77
2021/06/29 12:10:35;;;;;;;3.80;1.45;;;33.50;50.00;;;;;;5072912;28;20352;-79
2021/06/29 12:13:03;;;;;;;1.90;1.20;;;33.80;51.10;;;;;;5072426;28;20035;-80
2021/06/29 12:15:32;;;;;;;9.95;1.42;;;33.70;49.60;;;;;;5072702;28;20478;-78
2021/06/29 12:18:00;;;;;;;5.75;1.45;;;33.70;48.80;;;;;;5072294;28;20032;-79
2021/06/29 12:20:32;;;;;;;3.58;1.48;;;33.80;49.70;;;;;;5072176;28;20024;-79
2021/06/29 12:22:58;;;;;;;7.10;1.38;;;33.90;49.20;;;;;;5073321;28;20078;-78
2021/06/29 12:25:30;;;;;;;5.32;1.65;;;33.90;51.20;;;;;;5073374;28;20028;-79
2021/06/29 12:28:02;;;;;;;2.83;1.48;;;34.00;49.10;;;;;;5073406;28;20123;-79
2021/06/29 12:30:32;;;;;;;3.22;1.25;;;34.10;50.30;;;;;;5071593;28;20075;-79
2021/06/29 12:33:00;;;;;;;3.85;1.25;;;34.10;50.60;;;;;;5073281;28;20032;-79
2021/06/29 12:35:29;;;;;;;1.92;1.33;;;34.20;49.90;;;;;;5073171;28;20111;-78
2021/06/29 12:37:55;;;;;;;4.32;1.45;;;34.10;50.70;;;;;;5072521;28;20463;-76
2021/06/29 12:40:22;;;;;;;3.85;1.15;;;34.10;49.70;;;;;;5072549;28;20031;-80
2021/06/29 12:42:48;;;;;;;1.50;1.05;;;34.10;48.70;;;;;;5073637;28;20021;-77
2021/06/29 12:45:14;;;;;;;4.53;1.15;;;34.20;49.90;;;;;;5072913;28;20078;-76
2021/06/29 12:47:40;;;;;;;2.80;1.17;;;34.00;48.30;;;;;;5072793;28;20058;-77
2021/06/29 12:50:07;;;;;;;3.58;1.60;;;33.90;48.60;;;;;;5073086;28;20028;-76
2021/06/29 12:52:33;;;;;;;3.85;1.38;;;34.00;48.80;;;;;;5072703;28;20483;-77
2021/06/29 12:55:12;;;;;;;5.00;1.60;;;34.00;49.50;;;;;;5073293;28;20078;-77